Back to Top

Language: 

My Weather Underground Personal Weather Station Historical Data with Graphs...

Delerius Weather Station Historical Data
Daily Summary for November 21, 2017 Units:  English    Metric   Both
« Previous Day
Next Day »
Daily Weekly Monthly Yearly Custom
  High: Low: Average:
Temperature: 57.9 °F 52.0 °F 55.3 °F
Dew Point: 54.2 °F 49.1 °F 52 °F
Humidity: 97 % 77 % 89 %
Wind Speed: 19.0 mph 0.0 mph 10.1 mph
Wind Gust: 28.0 mph - -
Wind:- - WSW
Pressure: 29.80 in 29.45 in -
Precipitation: 0.03 in    
Historical Graphs
 
 
Tabular Data for November 21, 2017
Time Temperature Dew Point Pressure Wind Wind Speed Wind Gust Humidity Rainfall Rate (Hourly) solar Conditions
00:04 53.1 °F 50.2 °F 29.80 in West 2.0 mph 5.0 mph 90 % 0.00 in 0 W/m2
00:20 53.1 °F 50.2 °F 29.80 in West 3.0 mph 5.0 mph 90 % 0.00 in 0 W/m2
00:25 53.1 °F 50.2 °F 29.79 in WNW 2.0 mph 6.0 mph 90 % 0.00 in 0 W/m2
00:28 52.9 °F 50.0 °F 29.79 in West 3.0 mph 5.0 mph 90 % 0.00 in 0 W/m2
00:29 52.9 °F 50.3 °F 29.79 in West 2.0 mph 5.0 mph 91 % 0.00 in 0 W/m2
00:30 52.9 °F 50.3 °F 29.79 in West 2.0 mph 5.0 mph 91 % 0.00 in 0 W/m2
00:35 52.9 °F 50.3 °F 29.79 in West 2.0 mph 6.0 mph 91 % 0.00 in 0 W/m2
00:40 52.9 °F 50.3 °F 29.79 in Calm   2.0 mph 91 % 0.00 in 0 W/m2
00:50 52.7 °F 50.1 °F 29.79 in Calm     91 % 0.00 in 0 W/m2
00:55 52.5 °F 50.0 °F 29.79 in Calm     91 % 0.00 in 0 W/m2
01:00 52.5 °F 50.0 °F 29.79 in West 1.0 mph 5.0 mph 91 % 0.00 in 0 W/m2
01:05 52.5 °F 50.3 °F 29.78 in Calm   2.0 mph 92 % 0.00 in 0 W/m2
01:10 52.5 °F 50.3 °F 29.78 in SSW 1.0 mph 5.0 mph 92 % 0.00 in 0 W/m2
01:20 52.3 °F 50.1 °F 29.78 in Calm     92 % 0.00 in 0 W/m2
01:25 52.3 °F 50.1 °F 29.78 in Calm     92 % 0.00 in 0 W/m2
01:30 52.3 °F 50.4 °F 29.78 in Calm     93 % 0.00 in 0 W/m2
01:35 52.3 °F 50.4 °F 29.78 in Calm     93 % 0.01 in 0 W/m2
01:40 52.2 °F 50.2 °F 29.78 in Calm     93 % 0.01 in 0 W/m2
01:45 52.2 °F 50.2 °F 29.78 in Calm     93 % 0.01 in 0 W/m2
01:50 52.2 °F 50.2 °F 29.78 in Calm     93 % 0.01 in 0 W/m2
01:55 52.2 °F 50.2 °F 29.77 in Calm     93 % 0.01 in 0 W/m2
02:05 52.2 °F 50.5 °F 29.77 in Calm     94 % 0.01 in 0 W/m2
02:06 52.2 °F 50.5 °F 29.77 in Calm     94 % 0.01 in 0 W/m2
02:11 52.2 °F 50.5 °F 29.77 in Calm     94 % 0.01 in 0 W/m2
02:26 52.2 °F 50.5 °F 29.76 in Calm     94 % 0.01 in 0 W/m2
02:31 52.2 °F 50.8 °F 29.76 in Calm     95 % 0.00 in 0 W/m2
02:36 52.2 °F 50.8 °F 29.76 in Calm     95 % 0.00 in 0 W/m2
02:38 52.2 °F 50.8 °F 29.76 in Calm     95 % 0.00 in 0 W/m2
02:43 52.2 °F 50.8 °F 29.75 in Calm     95 % 0.01 in 0 W/m2
02:53 52.0 °F 50.6 °F 29.75 in Calm     95 % 0.01 in 0 W/m2
02:58 52.2 °F 50.8 °F 29.75 in Calm     95 % 0.01 in 0 W/m2
03:13 52.2 °F 50.8 °F 29.74 in Calm     95 % 0.01 in 0 W/m2
03:18 52.2 °F 50.8 °F 29.74 in SSW 1.0 mph 2.0 mph 95 % 0.01 in 0 W/m2
03:23 52.2 °F 50.8 °F 29.74 in NNW 3.0 mph 5.0 mph 95 % 0.01 in 0 W/m2
03:25 52.2 °F 51.1 °F 29.74 in NNW 1.0 mph 4.0 mph 96 % 0.01 in 0 W/m2
03:30 52.5 °F 51.4 °F 29.74 in West 3.0 mph 7.0 mph 96 % 0.01 in 0 W/m2
03:35 53.2 °F 52.1 °F 29.73 in WSW 6.0 mph 10.0 mph 96 % 0.01 in 0 W/m2
03:40 54.1 °F 53.3 °F 29.73 in WSW 7.0 mph 10.0 mph 97 % 0.00 in 0 W/m2
03:45 54.5 °F 53.7 °F 29.73 in West 7.0 mph 12.0 mph 97 % 0.00 in 0 W/m2
03:50 54.9 °F 53.7 °F 29.74 in West 8.0 mph 11.0 mph 96 % 0.00 in 0 W/m2
03:55 55.0 °F 53.9 °F 29.73 in West 7.0 mph 11.0 mph 96 % 0.00 in 0 W/m2
04:10 55.6 °F 54.2 °F 29.73 in West 9.0 mph 15.0 mph 95 % 0.00 in 0 W/m2
04:15 55.6 °F 53.9 °F 29.73 in West 11.0 mph 15.0 mph 94 % 0.00 in 0 W/m2
04:16 55.6 °F 53.9 °F 29.73 in West 11.0 mph 15.0 mph 94 % 0.00 in 0 W/m2
04:32 55.8 °F 53.8 °F 29.72 in WSW 7.0 mph 12.0 mph 93 % 0.00 in 0 W/m2
04:37 55.8 °F 53.8 °F 29.73 in West 9.0 mph 12.0 mph 93 % 0.00 in 0 W/m2
04:42 55.8 °F 53.8 °F 29.72 in West 8.0 mph 14.0 mph 93 % 0.00 in 0 W/m2
04:47 55.8 °F 53.8 °F 29.72 in WSW 11.0 mph 21.0 mph 93 % 0.00 in 0 W/m2
04:52 55.9 °F 53.6 °F 29.73 in West 10.0 mph 15.0 mph 92 % 0.00 in 0 W/m2
04:57 55.9 °F 53.6 °F 29.72 in West 8.0 mph 12.0 mph 92 % 0.00 in 0 W/m2
05:07 56.1 °F 53.8 °F 29.72 in West 12.0 mph 20.0 mph 92 % 0.00 in 0 W/m2
05:12 56.1 °F 53.8 °F 29.72 in West 9.0 mph 13.0 mph 92 % 0.00 in 0 W/m2
05:17 55.9 °F 53.6 °F 29.72 in West 9.0 mph 13.0 mph 92 % 0.00 in 0 W/m2
05:22 55.9 °F 53.6 °F 29.72 in West 9.0 mph 14.0 mph 92 % 0.00 in 0 W/m2
05:27 55.9 °F 53.6 °F 29.72 in WSW 9.0 mph 13.0 mph 92 % 0.01 in 0 W/m2
05:32 55.9 °F 53.6 °F 29.71 in West 11.0 mph 20.0 mph 92 % 0.01 in 0 W/m2
05:37 55.9 °F 53.6 °F 29.71 in WSW 11.0 mph 19.0 mph 92 % 0.01 in 0 W/m2
05:42 55.9 °F 53.6 °F 29.71 in WSW 11.0 mph 16.0 mph 92 % 0.01 in 0 W/m2
05:47 55.9 °F 53.6 °F 29.71 in WSW 13.0 mph 23.0 mph 92 % 0.01 in 0 W/m2
05:52 55.9 °F 53.6 °F 29.71 in WSW 13.0 mph 21.0 mph 92 % 0.01 in 0 W/m2
05:57 55.9 °F 53.4 °F 29.71 in West 12.0 mph 20.0 mph 91 % 0.01 in 0 W/m2
05:58 55.9 °F 53.4 °F 29.71 in West 11.0 mph 16.0 mph 91 % 0.01 in 0 W/m2
06:08 55.8 °F 53.5 °F 29.71 in West 12.0 mph 20.0 mph 92 % 0.01 in 0 W/m2
06:23 55.9 °F 53.4 °F 29.71 in WSW 11.0 mph 19.0 mph 91 % 0.01 in 0 W/m2
06:28 55.9 °F 53.4 °F 29.71 in West 14.0 mph 20.0 mph 91 % 0.00 in 0 W/m2
06:33 55.9 °F 53.4 °F 29.71 in West 11.0 mph 22.0 mph 91 % 0.00 in 0 W/m2
06:38 55.9 °F 53.0 °F 29.71 in West 12.0 mph 20.0 mph 90 % 0.00 in 0 W/m2
06:44 55.9 °F 53.0 °F 29.71 in West 11.0 mph 18.0 mph 90 % 0.00 in 0 W/m2
06:59 55.8 °F 52.9 °F 29.71 in West 13.0 mph 18.0 mph 90 % 0.00 in 0 W/m2
07:14 55.8 °F 52.9 °F 29.71 in West 11.0 mph 16.0 mph 90 % 0.00 in 0 W/m2
07:19 55.8 °F 52.9 °F 29.72 in WSW 11.0 mph 19.0 mph 90 % 0.00 in 0 W/m2
07:24 55.8 °F 52.9 °F 29.71 in WSW 12.0 mph 21.0 mph 90 % 0.00 in 0 W/m2
07:29 55.8 °F 52.9 °F 29.71 in WSW 13.0 mph 20.0 mph 90 % 0.00 in 0 W/m2
07:34 55.8 °F 52.9 °F 29.71 in West 10.0 mph 15.0 mph 90 % 0.00 in 0 W/m2
07:39 55.6 °F 52.7 °F 29.71 in West 11.0 mph 16.0 mph 90 % 0.00 in 0 W/m2
07:44 55.8 °F 52.9 °F 29.71 in West 10.0 mph 20.0 mph 90 % 0.00 in 0 W/m2
07:54 55.8 °F 52.9 °F 29.71 in West 14.0 mph 21.0 mph 90 % 0.00 in 0 W/m2
07:59 55.8 °F 52.9 °F 29.71 in West 14.0 mph 21.0 mph 90 % 0.00 in 5 W/m2
08:10 55.9 °F 52.7 °F 29.72 in West 11.0 mph 21.0 mph 89 % 0.00 in 9 W/m2
08:15 55.8 °F 52.6 °F 29.72 in WSW 13.0 mph 18.0 mph 89 % 0.00 in 9 W/m2
08:20 55.8 °F 52.6 °F 29.72 in WSW 11.0 mph 20.0 mph 89 % 0.00 in 11 W/m2
08:26 55.9 °F 52.7 °F 29.72 in WSW 12.0 mph 20.0 mph 89 % 0.00 in 12 W/m2
08:31 55.9 °F 52.7 °F 29.72 in West 12.0 mph 16.0 mph 89 % 0.00 in 12 W/m2
08:36 55.9 °F 52.7 °F 29.72 in West 10.0 mph 15.0 mph 89 % 0.00 in 14 W/m2
08:41 55.9 °F 52.7 °F 29.72 in West 10.0 mph 16.0 mph 89 % 0.00 in 14 W/m2
08:46 55.9 °F 52.7 °F 29.72 in West 12.0 mph 21.0 mph 89 % 0.00 in 21 W/m2
08:56 55.9 °F 52.7 °F 29.72 in West 14.0 mph 21.0 mph 89 % 0.00 in 30 W/m2
09:01 55.9 °F 52.7 °F 29.72 in West 14.0 mph 22.0 mph 89 % 0.00 in 33 W/m2
09:06 55.8 °F 52.6 °F 29.72 in West 11.0 mph 18.0 mph 89 % 0.00 in 30 W/m2
09:11 55.8 °F 52.6 °F 29.72 in West 14.0 mph 22.0 mph 89 % 0.00 in 32 W/m2
09:16 55.9 °F 52.7 °F 29.72 in WSW 12.0 mph 18.0 mph 89 % 0.00 in 35 W/m2
09:21 55.8 °F 52.6 °F 29.72 in West 11.0 mph 20.0 mph 89 % 0.00 in 44 W/m2
09:26 55.9 °F 52.7 °F 29.72 in West 10.0 mph 14.0 mph 89 % 0.00 in 53 W/m2
09:31 55.9 °F 52.7 °F 29.72 in West 11.0 mph 18.0 mph 89 % 0.00 in 46 W/m2
09:36 55.9 °F 52.7 °F 29.71 in WSW 10.0 mph 19.0 mph 89 % 0.00 in 46 W/m2
09:53 56.1 °F 52.9 °F 29.71 in WSW 11.0 mph 18.0 mph 89 % 0.00 in 37 W/m2
09:58 56.1 °F 52.6 °F 29.71 in West 11.0 mph 14.0 mph 88 % 0.00 in 37 W/m2
10:03 56.1 °F 52.6 °F 29.71 in West 10.0 mph 16.0 mph 88 % 0.00 in 40 W/m2
10:13 56.3 °F 52.8 °F 29.72 in WSW 10.0 mph 18.0 mph 88 % 0.00 in 47 W/m2
10:28 56.5 °F 52.7 °F 29.71 in WSW 13.0 mph 20.0 mph 87 % 0.00 in 63 W/m2
10:38 56.5 °F 52.7 °F 29.70 in WSW 14.0 mph 23.0 mph 87 % 0.00 in 70 W/m2
10:43 56.5 °F 52.7 °F 29.70 in WSW 11.0 mph 21.0 mph 87 % 0.00 in 74 W/m2
10:48 56.5 °F 52.7 °F 29.70 in WSW 14.0 mph 22.0 mph 87 % 0.00 in 79 W/m2
10:53 56.5 °F 52.7 °F 29.70 in SW 10.0 mph 14.0 mph 87 % 0.00 in 86 W/m2
10:58 56.5 °F 52.7 °F 29.70 in SW 14.0 mph 24.0 mph 87 % 0.00 in 84 W/m2
11:03 56.5 °F 52.7 °F 29.71 in SW 11.0 mph 21.0 mph 87 % 0.00 in 88 W/m2
11:08 56.5 °F 52.7 °F 29.70 in SW 13.0 mph 21.0 mph 87 % 0.00 in 84 W/m2
11:13 56.5 °F 52.7 °F 29.70 in SW 11.0 mph 19.0 mph 87 % 0.00 in 91 W/m2
11:18 56.5 °F 52.7 °F 29.70 in SW 13.0 mph 21.0 mph 87 % 0.00 in 79 W/m2
11:23 56.3 °F 52.5 °F 29.70 in SW 10.0 mph 16.0 mph 87 % 0.00 in 79 W/m2
11:28 56.1 °F 52.3 °F 29.71 in SW 13.0 mph 20.0 mph 87 % 0.00 in 76 W/m2
11:33 56.1 °F 52.3 °F 29.71 in WSW 11.0 mph 15.0 mph 87 % 0.00 in 28 W/m2
11:38 55.9 °F 52.1 °F 29.70 in SW 13.0 mph 20.0 mph 87 % 0.00 in 26 W/m2
11:53 55.8 °F 51.9 °F 29.70 in SW 9.0 mph 14.0 mph 87 % 0.00 in 39 W/m2
11:58 55.8 °F 52.3 °F 29.69 in SW 7.0 mph 10.0 mph 88 % 0.00 in 35 W/m2
12:03 55.8 °F 52.3 °F 29.69 in SW 9.0 mph 15.0 mph 88 % 0.00 in 62 W/m2
12:08 55.6 °F 52.1 °F 29.68 in SW 10.0 mph 18.0 mph 88 % 0.00 in 58 W/m2
12:13 55.6 °F 51.8 °F 29.69 in SSW 9.0 mph 12.0 mph 87 % 0.00 in 63 W/m2
12:18 55.4 °F 51.6 °F 29.69 in WSW 9.0 mph 14.0 mph 87 % 0.00 in 91 W/m2
12:28 55.4 °F 51.3 °F 29.69 in SW 7.0 mph 12.0 mph 86 % 0.00 in 76 W/m2
12:33 55.4 °F 51.3 °F 29.68 in WSW 10.0 mph 16.0 mph 86 % 0.00 in 83 W/m2
12:38 55.6 °F 50.8 °F 29.68 in WSW 13.0 mph 21.0 mph 84 % 0.00 in 93 W/m2
12:43 55.6 °F 50.8 °F 29.68 in SW 9.0 mph 15.0 mph 84 % 0.00 in 47 W/m2
12:48 55.6 °F 50.8 °F 29.68 in WSW 8.0 mph 12.0 mph 84 % 0.00 in 56 W/m2
12:53 55.6 °F 50.8 °F 29.68 in West 13.0 mph 23.0 mph 84 % 0.00 in 54 W/m2
12:58 55.6 °F 50.8 °F 29.67 in West 13.0 mph 23.0 mph 84 % 0.00 in 77 W/m2
13:08 55.4 °F 50.3 °F 29.67 in WSW 11.0 mph 18.0 mph 83 % 0.00 in 72 W/m2
13:17 55.2 °F 50.1 °F 29.67 in WSW 9.0 mph 18.0 mph 83 % 0.00 in 88 W/m2
13:22 55.2 °F 49.5 °F 29.66 in West 13.0 mph 20.0 mph 81 % 0.00 in 95 W/m2
13:27 55.0 °F 49.3 °F 29.66 in SW 12.0 mph 22.0 mph 81 % 0.00 in 118 W/m2
13:42 55.4 °F 49.3 °F 29.64 in SSW 3.0 mph 7.0 mph 80 % 0.00 in 200 W/m2
13:47 55.8 °F 49.3 °F 29.63 in WSW 9.0 mph 15.0 mph 79 % 0.00 in 211 W/m2
13:52 55.9 °F 49.5 °F 29.63 in WSW 11.0 mph 23.0 mph 79 % 0.00 in 202 W/m2
14:02 56.3 °F 49.2 °F 29.62 in WSW 14.0 mph 24.0 mph 77 % 0.00 in 178 W/m2
14:07 56.5 °F 49.7 °F 29.62 in WSW 13.0 mph 20.0 mph 78 % 0.00 in 220 W/m2
14:12 56.5 °F 49.7 °F 29.63 in WSW 12.0 mph 20.0 mph 78 % 0.00 in 171 W/m2
14:17 56.5 °F 49.7 °F 29.62 in WSW 12.0 mph 21.0 mph 78 % 0.00 in 188 W/m2
14:22 56.3 °F 49.5 °F 29.62 in WSW 14.0 mph 21.0 mph 78 % 0.00 in 120 W/m2
14:27 56.1 °F 49.4 °F 29.62 in WSW 9.0 mph 14.0 mph 78 % 0.00 in 74 W/m2
14:37 55.6 °F 49.5 °F 29.62 in WSW 12.0 mph 19.0 mph 80 % 0.00 in 51 W/m2
14:42 55.2 °F 49.2 °F 29.61 in SW 12.0 mph 22.0 mph 80 % 0.00 in 40 W/m2
14:47 55.0 °F 49.3 °F 29.61 in WSW 11.0 mph 18.0 mph 81 % 0.00 in 37 W/m2
14:52 54.9 °F 49.1 °F 29.61 in SW 14.0 mph 21.0 mph 81 % 0.00 in 35 W/m2
14:57 54.7 °F 49.3 °F 29.61 in WSW 16.0 mph 25.0 mph 82 % 0.00 in 35 W/m2
15:02 54.7 °F 49.3 °F 29.61 in SW 13.0 mph 22.0 mph 82 % 0.00 in 35 W/m2
15:12 54.9 °F 49.5 °F 29.60 in SW 12.0 mph 16.0 mph 82 % 0.00 in 25 W/m2
15:17 54.9 °F 49.8 °F 29.60 in SW 14.0 mph 21.0 mph 83 % 0.00 in 21 W/m2
15:22 54.7 °F 49.6 °F 29.60 in WSW 12.0 mph 18.0 mph 83 % 0.00 in 16 W/m2
15:27 54.7 °F 49.6 °F 29.60 in WSW 14.0 mph 20.0 mph 83 % 0.00 in 12 W/m2
15:32 54.7 °F 49.9 °F 29.59 in SW 13.0 mph 24.0 mph 84 % 0.00 in 9 W/m2
15:37 54.7 °F 49.9 °F 29.59 in WSW 14.0 mph 21.0 mph 84 % 0.00 in 7 W/m2
15:42 54.7 °F 49.9 °F 29.59 in WSW 14.0 mph 22.0 mph 84 % 0.00 in 5 W/m2
15:52 54.7 °F 49.9 °F 29.59 in SW 12.0 mph 20.0 mph 84 % 0.00 in 0 W/m2
16:02 54.3 °F 49.9 °F 29.59 in SW 9.0 mph 13.0 mph 85 % 0.00 in 0 W/m2
16:12 54.1 °F 49.7 °F 29.59 in SW 9.0 mph 16.0 mph 85 % 0.00 in 0 W/m2
16:17 54.0 °F 49.9 °F 29.59 in SW 9.0 mph 14.0 mph 86 % 0.00 in 0 W/m2
16:21 54.0 °F 49.9 °F 29.58 in SW 10.0 mph 20.0 mph 86 % 0.00 in 0 W/m2
16:26 54.0 °F 50.2 °F 29.58 in SW 11.0 mph 19.0 mph 87 % 0.00 in 0 W/m2
16:31 54.1 °F 50.4 °F 29.58 in SSW 11.0 mph 18.0 mph 87 % 0.00 in 0 W/m2
16:36 54.1 °F 50.4 °F 29.58 in SW 10.0 mph 18.0 mph 87 % 0.00 in 0 W/m2
16:41 54.1 °F 50.4 °F 29.58 in SW 10.0 mph 16.0 mph 87 % 0.00 in 0 W/m2
16:46 54.3 °F 50.5 °F 29.57 in SW 9.0 mph 18.0 mph 87 % 0.00 in 0 W/m2
17:02 54.5 °F 51.0 °F 29.56 in SSW 10.0 mph 16.0 mph 88 % 0.00 in 0 W/m2
17:12 54.3 °F 50.8 °F 29.55 in SSW 9.0 mph 15.0 mph 88 % 0.00 in 0 W/m2
17:17 54.1 °F 50.7 °F 29.55 in SSW 8.0 mph 12.0 mph 88 % 0.00 in 0 W/m2
17:22 54.1 °F 51.0 °F 29.55 in SSW 9.0 mph 16.0 mph 89 % 0.00 in 0 W/m2
17:27 54.1 °F 51.0 °F 29.54 in SSW 11.0 mph 22.0 mph 89 % 0.00 in 0 W/m2
17:32 54.3 °F 51.1 °F 29.54 in SSW 11.0 mph 16.0 mph 89 % 0.00 in 0 W/m2
17:47 54.7 °F 51.5 °F 29.53 in SW 13.0 mph 20.0 mph 89 % 0.00 in 0 W/m2
18:02 55.2 °F 52.0 °F 29.53 in SW 15.0 mph 24.0 mph 89 % 0.00 in 0 W/m2
18:07 55.2 °F 52.0 °F 29.52 in SW 15.0 mph 23.0 mph 89 % 0.00 in 0 W/m2
18:12 55.0 °F 52.2 °F 29.52 in SW 15.0 mph 22.0 mph 90 % 0.00 in 0 W/m2
18:17 54.9 °F 52.0 °F 29.52 in SW 18.0 mph 28.0 mph 90 % 0.00 in 0 W/m2
18:22 54.7 °F 52.1 °F 29.51 in SW 16.0 mph 23.0 mph 91 % 0.00 in 0 W/m2
18:27 54.7 °F 52.1 °F 29.51 in SW 16.0 mph 23.0 mph 91 % 0.01 in 0 W/m2
18:32 54.3 °F 52.0 °F 29.51 in SW 13.0 mph 19.0 mph 92 % 0.01 in 0 W/m2
18:37 54.3 °F 52.0 °F 29.50 in SW 16.0 mph 24.0 mph 92 % 0.01 in 0 W/m2
18:42 54.3 °F 52.0 °F 29.50 in SW 16.0 mph 25.0 mph 92 % 0.01 in 0 W/m2
18:47 54.3 °F 52.3 °F 29.50 in SW 17.0 mph 27.0 mph 93 % 0.01 in 0 W/m2
18:52 54.3 °F 52.3 °F 29.50 in SW 14.0 mph 19.0 mph 93 % 0.01 in 0 W/m2
18:57 54.3 °F 52.3 °F 29.49 in SW 15.0 mph 24.0 mph 93 % 0.01 in 0 W/m2
19:02 54.5 °F 52.5 °F 29.49 in SW 14.0 mph 22.0 mph 93 % 0.01 in 0 W/m2
19:07 54.7 °F 52.7 °F 29.49 in SW 15.0 mph 21.0 mph 93 % 0.01 in 0 W/m2
19:12 54.7 °F 52.7 °F 29.49 in WSW 16.0 mph 24.0 mph 93 % 0.01 in 0 W/m2
19:17 54.7 °F 52.7 °F 29.48 in WSW 15.0 mph 26.0 mph 93 % 0.01 in 0 W/m2
19:22 54.9 °F 52.9 °F 29.48 in WSW 12.0 mph 21.0 mph 93 % 0.01 in 0 W/m2
19:27 55.0 °F 53.1 °F 29.48 in WSW 15.0 mph 24.0 mph 93 % 0.00 in 0 W/m2
19:32 55.2 °F 53.2 °F 29.48 in WSW 15.0 mph 26.0 mph 93 % 0.00 in 0 W/m2
19:37 55.6 °F 53.3 °F 29.47 in WSW 14.0 mph 22.0 mph 92 % 0.00 in 0 W/m2
19:42 55.8 °F 53.5 °F 29.48 in WSW 17.0 mph 27.0 mph 92 % 0.00 in 0 W/m2
19:47 55.9 °F 53.4 °F 29.48 in WSW 15.0 mph 23.0 mph 91 % 0.00 in 0 W/m2
19:52 56.1 °F 53.5 °F 29.48 in WSW 15.0 mph 26.0 mph 91 % 0.00 in 0 W/m2
20:12 57.0 °F 53.8 °F 29.48 in WSW 17.0 mph 24.0 mph 89 % 0.00 in 0 W/m2
20:22 57.2 °F 53.7 °F 29.48 in WSW 16.0 mph 24.0 mph 88 % 0.00 in 0 W/m2
20:27 57.0 °F 53.5 °F 29.48 in WSW 13.0 mph 25.0 mph 88 % 0.00 in 0 W/m2
20:37 57.4 °F 53.9 °F 29.48 in WSW 15.0 mph 24.0 mph 88 % 0.00 in 0 W/m2
20:42 57.4 °F 53.9 °F 29.48 in WSW 17.0 mph 25.0 mph 88 % 0.00 in 0 W/m2
20:47 57.4 °F 53.5 °F 29.49 in WSW 14.0 mph 23.0 mph 87 % 0.00 in 0 W/m2
20:52 57.6 °F 53.4 °F 29.48 in WSW 17.0 mph 25.0 mph 86 % 0.00 in 0 W/m2
20:57 57.7 °F 53.6 °F 29.48 in WSW 17.0 mph 24.0 mph 86 % 0.00 in 0 W/m2
21:02 57.7 °F 53.6 °F 29.48 in WSW 19.0 mph 26.0 mph 86 % 0.00 in 0 W/m2
21:08 57.9 °F 53.4 °F 29.48 in WSW 16.0 mph 24.0 mph 85 % 0.00 in 0 W/m2
21:23 57.9 °F 53.4 °F 29.48 in WSW 15.0 mph 22.0 mph 85 % 0.00 in 0 W/m2
21:28 57.9 °F 53.4 °F 29.48 in SW 12.0 mph 21.0 mph 85 % 0.00 in 0 W/m2
21:33 57.9 °F 53.4 °F 29.48 in SW 14.0 mph 27.0 mph 85 % 0.00 in 0 W/m2
21:38 57.9 °F 53.4 °F 29.48 in WSW 10.0 mph 21.0 mph 85 % 0.00 in 0 W/m2
21:53 57.6 °F 53.7 °F 29.48 in SW 13.0 mph 21.0 mph 87 % 0.00 in 0 W/m2
21:58 57.4 °F 53.5 °F 29.48 in SW 11.0 mph 15.0 mph 87 % 0.00 in 0 W/m2
22:03 57.4 °F 53.5 °F 29.48 in SW 10.0 mph 15.0 mph 87 % 0.00 in 0 W/m2
22:08 57.2 °F 53.7 °F 29.48 in WSW 12.0 mph 19.0 mph 88 % 0.00 in 0 W/m2
22:13 57.4 °F 53.9 °F 29.48 in SW 11.0 mph 16.0 mph 88 % 0.00 in 0 W/m2
22:18 57.4 °F 53.9 °F 29.49 in SW 13.0 mph 18.0 mph 88 % 0.00 in 0 W/m2
22:23 57.4 °F 53.9 °F 29.49 in WSW 11.0 mph 16.0 mph 88 % 0.00 in 0 W/m2
22:28 57.2 °F 53.7 °F 29.48 in SW 10.0 mph 15.0 mph 88 % 0.00 in 0 W/m2
22:33 57.2 °F 53.7 °F 29.48 in SW 9.0 mph 15.0 mph 88 % 0.00 in 0 W/m2
22:38 57.2 °F 53.7 °F 29.48 in SW 10.0 mph 18.0 mph 88 % 0.00 in 0 W/m2
22:43 57.2 °F 53.7 °F 29.47 in SW 10.0 mph 14.0 mph 88 % 0.00 in 0 W/m2
22:48 57.0 °F 53.5 °F 29.47 in SW 9.0 mph 15.0 mph 88 % 0.00 in 0 W/m2
22:53 57.0 °F 53.5 °F 29.47 in WSW 10.0 mph 18.0 mph 88 % 0.00 in 0 W/m2
22:58 57.2 °F 53.7 °F 29.47 in WSW 13.0 mph 26.0 mph 88 % 0.00 in 0 W/m2
23:03 57.2 °F 53.7 °F 29.47 in WSW 12.0 mph 16.0 mph 88 % 0.00 in 0 W/m2
23:08 57.4 °F 53.9 °F 29.46 in WSW 12.0 mph 19.0 mph 88 % 0.00 in 0 W/m2
23:13 57.4 °F 53.5 °F 29.46 in WSW 12.0 mph 16.0 mph 87 % 0.00 in 0 W/m2
23:18 57.6 °F 53.7 °F 29.46 in WSW 14.0 mph 22.0 mph 87 % 0.00 in 0 W/m2
23:23 57.6 °F 53.4 °F 29.46 in WSW 9.0 mph 18.0 mph 86 % 0.00 in 0 W/m2
23:38 57.4 °F 53.5 °F 29.45 in WSW 12.0 mph 22.0 mph 87 % 0.00 in 0 W/m2
23:43 57.4 °F 53.5 °F 29.45 in WSW 10.0 mph 18.0 mph 87 % 0.00 in 0 W/m2
23:48 57.4 °F 53.5 °F 29.45 in WSW 12.0 mph 21.0 mph 87 % 0.00 in 0 W/m2
23:53 57.4 °F 53.5 °F 29.45 in WSW 16.0 mph 22.0 mph 87 % 0.00 in 0 W/m2
Delerius-Weather
Compliments of Weather Underground - 2 mb

Data updates at regular intervals.